Previous Day
Next Day
Current Day
SHEF ID: FVSO2 FAIRVIEW
STATION TYPE: Mesonet
PRECIP AIR-TEMP WIND-DIRWIND-SPEED REL-HUMID SOLAR-RAD
in F deg mph % W/m2
Raw-Meson Raw-Meson Raw-Meson Raw-Meson Raw-Meson Raw-Meson
(US/Central)
05/30 00:00 0.00 58.91 99.75 6.88 83.25 0.00
05/30 01:00 0.00 57.20 114.25 6.82 86.75 0.00
05/30 02:00 0.00 56.03 119.50 7.05 88.75 0.00
05/30 03:00 0.00 54.86 114.75 5.65 91.25 0.00
05/30 04:00 0.00 54.05 112.25 4.42 92.50 0.00
05/30 05:00 0.00 53.20 89.75 3.47 94.25 0.00
05/30 06:00 0.00 52.66 111.00 3.86 94.50 0.00
05/30 07:00 0.00 53.15 116.50 5.48 94.00 13.75
05/30 08:00 0.00 53.51 116.00 8.05 92.50 87.50
05/30 09:00 0.00 54.68 136.50 10.80 90.75 119.00
05/30 10:00 0.00 56.84 139.25 6.09 88.75 140.75
05/30 11:00 0.00 58.37 132.75 3.97 86.50 142.00
05/30 12:00 0.00 60.53 182.25 3.41 82.50 217.50
05/30 13:00 0.00 61.88 149.75 1.40 81.00 198.25
05/30 14:00 0.00 63.73 120.50 8.78 80.25 240.50
05/30 15:00 0.00 64.44 93.00 8.33 83.25 226.25
05/30 16:00 0.00 67.46 77.00 7.77 79.75 388.25
05/30 17:00 0.00 68.86 46.25 7.27 78.25 221.50
05/30 18:00 0.00 68.22 105.50 7.43 80.50 81.50
05/30 19:00 0.00 68.09 45.50 6.54 83.00 34.75
05/30 20:00 0.00 68.05 84.75 6.60 83.25 48.00
05/30 21:00 0.00 66.43 88.75 4.92 88.50 5.75
05/30 22:00 0.00 65.71 87.25 3.92 91.00 0.00
05/30 23:00 ---- 64.53 109.50 6.48 92.75 0.00